< < Back
Terminal Aerodrome Forecast


Current Version              Previous Versions:   1  2  3  4  5  6  7  8  9  

Terminal Aerodrome Forecast

928
FTUS42 KFFC 291130
TAFMCN
TAF
KMCN 291130Z 2912/3012 00000KT P6SM BKN250
     FM291400 12007KT P6SM SCT035
     FM291700 12009KT P6SM BKN040 BKN250
     FM300000 11004KT P6SM SCT080 BKN250=



Latest METAR

509
SAUS80 KWBC 300200
MTRMCN
METAR KMCN 300153Z AUTO 00000KT 10SM CLR 22/19 A3013 RMK AO2 SLP199
T02170189 TSNO


USA.gov is the U.S. government's official web portal to all federal, state and local government web resources and services.